sensor_id;sensor_type;location;lat;lon;timestamp;pressure;altitude;pressure_sealevel;temperature;humidity
61906;BME280;47863;55.766;37.672;2022-11-20T00:01:48;99931.31;;;-1.76;75.29
61906;BME280;47863;55.766;37.672;2022-11-20T00:04:13;99946.22;;;-1.77;74.91
61906;BME280;47863;55.766;37.672;2022-11-20T00:06:39;99939.44;;;-1.81;75.38
61906;BME280;47863;55.766;37.672;2022-11-20T00:09:04;99936.25;;;-1.88;75.23
61906;BME280;47863;55.766;37.672;2022-11-20T00:11:31;99936.25;;;-1.88;74.90
61906;BME280;47863;55.766;37.672;2022-11-20T00:14:00;99906.56;;;-2.06;75.08
61906;BME280;47863;55.766;37.672;2022-11-20T00:16:26;99938.28;;;-1.93;75.41
61906;BME280;47863;55.766;37.672;2022-11-20T00:18:53;99940.34;;;-1.82;74.88
61906;BME280;47863;55.766;37.672;2022-11-20T00:21:24;99939.25;;;-1.78;75.05
61906;BME280;47863;55.766;37.672;2022-11-20T00:23:51;99945.75;;;-1.68;74.91
61906;BME280;47863;55.766;37.672;2022-11-20T00:26:19;99907.31;;;-1.86;75.20
61906;BME280;47863;55.766;37.672;2022-11-20T00:28:50;99950.44;;;-1.57;75.12
61906;BME280;47863;55.766;37.672;2022-11-20T00:31:16;99946.03;;;-1.56;75.01
61906;BME280;47863;55.766;37.672;2022-11-20T00:33:42;99950.44;;;-1.57;75.09
61906;BME280;47863;55.766;37.672;2022-11-20T00:36:17;99948.66;;;-1.56;75.42
61906;BME280;47863;55.766;37.672;2022-11-20T00:38:43;99930.66;;;-1.64;74.60
61906;BME280;47863;55.766;37.672;2022-11-20T00:41:15;99947.88;;;-1.58;75.02
61906;BME280;47863;55.766;37.672;2022-11-20T00:43:41;99946.22;;;-1.60;74.80
61906;BME280;47863;55.766;37.672;2022-11-20T00:46:10;99935.16;;;-1.66;75.05
61906;BME280;47863;55.766;37.672;2022-11-20T00:48:37;99933.03;;;-1.75;75.27
61906;BME280;47863;55.766;37.672;2022-11-20T00:51:03;99918.50;;;-1.83;75.00
61906;BME280;47863;55.766;37.672;2022-11-20T00:53:28;99942.28;;;-1.68;75.12
61906;BME280;47863;55.766;37.672;2022-11-20T00:56:02;99928.53;;;-1.73;75.35
61906;BME280;47863;55.766;37.672;2022-11-20T00:58:35;99945.91;;;-1.71;75.18
61906;BME280;47863;55.766;37.672;2022-11-20T01:01:05;99947.84;;;-1.74;75.08
61906;BME280;47863;55.766;37.672;2022-11-20T01:03:32;99920.38;;;-1.85;74.99
61906;BME280;47863;55.766;37.672;2022-11-20T01:06:47;99945.22;;;-1.74;75.25
61906;BME280;47863;55.766;37.672;2022-11-20T01:08:56;99942.06;;;-1.81;75.24
61906;BME280;47863;55.766;37.672;2022-11-20T01:11:24;99922.53;;;-1.93;74.80
61906;BME280;47863;55.766;37.672;2022-11-20T01:13:51;99945.38;;;-1.77;74.89
61906;BME280;47863;55.766;37.672;2022-11-20T01:16:27;99953.34;;;-1.79;75.30
61906;BME280;47863;55.766;37.672;2022-11-20T01:18:55;99943.84;;;-1.82;74.92
61906;BME280;47863;55.766;37.672;2022-11-20T01:21:26;99940.97;;;-1.77;75.19
61906;BME280;47863;55.766;37.672;2022-11-20T01:23:52;99930.41;;;-1.75;75.07
61906;BME280;47863;55.766;37.672;2022-11-20T01:26:21;99936.94;;;-1.67;74.69
61906;BME280;47863;55.766;37.672;2022-11-20T01:28:48;99929.38;;;-1.73;74.90
61906;BME280;47863;55.766;37.672;2022-11-20T01:33:45;99945.25;;;-1.58;74.99
61906;BME280;47863;55.766;37.672;2022-11-20T01:36:12;99924.13;;;-1.73;74.75
61906;BME280;47863;55.766;37.672;2022-11-20T01:38:38;99947.06;;;-1.59;74.33
61906;BME280;47863;55.766;37.672;2022-11-20T01:41:05;99955.78;;;-1.58;74.80
61906;BME280;47863;55.766;37.672;2022-11-20T01:43:31;99928.53;;;-1.73;74.50
61906;BME280;47863;55.766;37.672;2022-11-20T01:46:14;99959.34;;;-1.60;74.80
61906;BME280;47863;55.766;37.672;2022-11-20T01:53:58;99945.84;;;-1.69;74.86
61906;BME280;47863;55.766;37.672;2022-11-20T01:56:26;99959.50;;;-1.63;74.72
61906;BME280;47863;55.766;37.672;2022-11-20T01:58:55;99962.88;;;-1.61;74.59
61906;BME280;47863;55.766;37.672;2022-11-20T02:01:22;99942.75;;;-1.77;74.35
61906;BME280;47863;55.766;37.672;2022-11-20T02:03:48;99973.47;;;-1.62;74.53
61906;BME280;47863;55.766;37.672;2022-11-20T02:06:27;99971.84;;;-1.65;74.67
61906;BME280;47863;55.766;37.672;2022-11-20T02:08:54;99945.59;;;-1.82;74.62
61906;BME280;47863;55.766;37.672;2022-11-20T02:11:20;99960.06;;;-1.73;74.50
61906;BME280;47863;55.766;37.672;2022-11-20T02:13:47;99975.31;;;-1.64;74.83
61906;BME280;47863;55.766;37.672;2022-11-20T02:16:23;99982.13;;;-1.60;74.52
61906;BME280;47863;55.766;37.672;2022-11-20T02:18:51;99983.06;;;-1.61;74.78
61906;BME280;47863;55.766;37.672;2022-11-20T02:21:29;99971.66;;;-1.77;74.37
61906;BME280;47863;55.766;37.672;2022-11-20T02:26:29;99998.97;;;-1.64;74.53
61906;BME280;47863;55.766;37.672;2022-11-20T02:28:55;99979.22;;;-1.71;74.55
61906;BME280;47863;55.766;37.672;2022-11-20T02:31:21;99953.88;;;-1.90;74.47
61906;BME280;47863;55.766;37.672;2022-11-20T02:33:47;99995.81;;;-1.71;74.39
61906;BME280;47863;55.766;37.672;2022-11-20T02:36:15;99999.06;;;-1.66;74.41
61906;BME280;47863;55.766;37.672;2022-11-20T02:38:42;99975.44;;;-1.83;74.86
61906;BME280;47863;55.766;37.672;2022-11-20T02:41:08;99985.63;;;-1.77;74.59
61906;BME280;47863;55.766;37.672;2022-11-20T02:43:33;99976.81;;;-1.76;74.46
61906;BME280;47863;55.766;37.672;2022-11-20T02:45:59;100007.16;;;-1.53;74.60
61906;BME280;47863;55.766;37.672;2022-11-20T02:48:24;100015.66;;;-1.48;74.49
61906;BME280;47863;55.766;37.672;2022-11-20T02:50:50;100007.59;;;-1.45;74.20
61906;BME280;47863;55.766;37.672;2022-11-20T02:53:15;100007.38;;;-1.40;74.37
61906;BME280;47863;55.766;37.672;2022-11-20T02:55:41;99961.59;;;-1.69;74.34
61906;BME280;47863;55.766;37.672;2022-11-20T02:58:06;99963.78;;;-1.77;74.27
61906;BME280;47863;55.766;37.672;2022-11-20T03:00:32;100005.03;;;-1.46;74.14
61906;BME280;47863;55.766;37.672;2022-11-20T03:02:57;99982.44;;;-1.66;74.18
61906;BME280;47863;55.766;37.672;2022-11-20T03:05:23;100013.94;;;-1.49;74.34
61906;BME280;47863;55.766;37.672;2022-11-20T03:07:48;100000.34;;;-1.57;74.63
61906;BME280;47863;55.766;37.672;2022-11-20T03:10:14;100011.31;;;-1.49;74.69
61906;BME280;47863;55.766;37.672;2022-11-20T03:12:39;100014.72;;;-1.47;74.46
61906;BME280;47863;55.766;37.672;2022-11-20T03:15:05;100010.53;;;-1.51;74.23
61906;BME280;47863;55.766;37.672;2022-11-20T03:17:31;100011.94;;;-1.44;74.43
61906;BME280;47863;55.766;37.672;2022-11-20T03:19:56;100017.50;;;-1.50;74.21
61906;BME280;47863;55.766;37.672;2022-11-20T03:22:22;100013.34;;;-1.54;74.74
61906;BME280;47863;55.766;37.672;2022-11-20T03:24:47;100010.78;;;-1.55;74.71
61906;BME280;47863;55.766;37.672;2022-11-20T03:27:13;100009.25;;;-1.60;74.32
61906;BME280;47863;55.766;37.672;2022-11-20T03:29:38;100021.31;;;-1.55;74.26
61906;BME280;47863;55.766;37.672;2022-11-20T03:32:04;100022.00;;;-1.52;74.34
61906;BME280;47863;55.766;37.672;2022-11-20T03:34:30;100004.22;;;-1.64;74.83
61906;BME280;47863;55.766;37.672;2022-11-20T03:36:55;100023.53;;;-1.48;74.19
61906;BME280;47863;55.766;37.672;2022-11-20T03:39:21;100014.19;;;-1.53;74.29
61906;BME280;47863;55.766;37.672;2022-11-20T03:41:46;100021.91;;;-1.50;74.53
61906;BME280;47863;55.766;37.672;2022-11-20T03:44:12;100014.25;;;-1.55;74.17
61906;BME280;47863;55.766;37.672;2022-11-20T03:46:38;100019.44;;;-1.53;74.29
61906;BME280;47863;55.766;37.672;2022-11-20T03:49:04;99984.41;;;-1.70;74.27
61906;BME280;47863;55.766;37.672;2022-11-20T03:51:34;100012.41;;;-1.53;74.08
61906;BME280;47863;55.766;37.672;2022-11-20T03:54:03;99987.53;;;-1.63;74.24
61906;BME280;47863;55.766;37.672;2022-11-20T03:56:30;100028.69;;;-1.46;74.06
61906;BME280;47863;55.766;37.672;2022-11-20T03:58:56;99999.28;;;-1.70;74.15
61906;BME280;47863;55.766;37.672;2022-11-20T04:01:27;100037.13;;;-1.57;74.29
61906;BME280;47863;55.766;37.672;2022-11-20T04:03:54;100038.16;;;-1.60;74.50
61906;BME280;47863;55.766;37.672;2022-11-20T04:06:28;100040.69;;;-1.58;74.26
61906;BME280;47863;55.766;37.672;2022-11-20T04:08:56;100041.16;;;-1.50;74.24
61906;BME280;47863;55.766;37.672;2022-11-20T04:11:27;100045.41;;;-1.47;73.90
61906;BME280;47863;55.766;37.672;2022-11-20T04:13:57;100044.00;;;-1.54;74.08
61906;BME280;47863;55.766;37.672;2022-11-20T04:16:24;100044.94;;;-1.55;74.07
61906;BME280;47863;55.766;37.672;2022-11-20T04:18:58;100022.91;;;-1.70;74.11
61906;BME280;47863;55.766;37.672;2022-11-20T04:21:25;100044.38;;;-1.62;74.17
61906;BME280;47863;55.766;37.672;2022-11-20T04:23:52;100022.69;;;-1.83;74.00
61906;BME280;47863;55.766;37.672;2022-11-20T04:26:22;100057.69;;;-1.65;74.34
61906;BME280;47863;55.766;37.672;2022-11-20T04:28:48;100052.38;;;-1.64;74.46
61906;BME280;47863;55.766;37.672;2022-11-20T04:31:17;100031.28;;;-1.80;74.17
61906;BME280;47863;55.766;37.672;2022-11-20T04:33:43;100036.66;;;-1.83;74.25
61906;BME280;47863;55.766;37.672;2022-11-20T04:36:20;100052.44;;;-1.65;74.41
61906;BME280;47863;55.766;37.672;2022-11-20T04:38:46;100063.84;;;-1.66;74.18
61906;BME280;47863;55.766;37.672;2022-11-20T04:41:17;100066.47;;;-1.66;73.94
61906;BME280;47863;55.766;37.672;2022-11-20T04:43:50;100086.34;;;-1.61;74.07
61906;BME280;47863;55.766;37.672;2022-11-20T04:46:17;100084.72;;;-1.63;74.17
61906;BME280;47863;55.766;37.672;2022-11-20T04:48:44;100093.00;;;-1.53;73.85
61906;BME280;47863;55.766;37.672;2022-11-20T04:51:10;100095.63;;;-1.53;74.02
61906;BME280;47863;55.766;37.672;2022-11-20T04:53:36;100104.59;;;-1.57;74.06
61906;BME280;47863;55.766;37.672;2022-11-20T04:56:06;100101.25;;;-1.61;73.91
61906;BME280;47863;55.766;37.672;2022-11-20T04:58:33;100067.28;;;-1.82;73.82
61906;BME280;47863;55.766;37.672;2022-11-20T05:01:03;100091.50;;;-1.76;73.91
61906;BME280;47863;55.766;37.672;2022-11-20T05:03:30;100106.91;;;-1.69;73.94
61906;BME280;47863;55.766;37.672;2022-11-20T05:05:56;100091.69;;;-1.80;74.03
61906;BME280;47863;55.766;37.672;2022-11-20T05:08:22;100114.41;;;-1.61;73.85
61906;BME280;47863;55.766;37.672;2022-11-20T05:10:47;100113.31;;;-1.57;73.89
61906;BME280;47863;55.766;37.672;2022-11-20T05:13:12;100104.53;;;-1.56;73.90
61906;BME280;47863;55.766;37.672;2022-11-20T05:15:38;100114.03;;;-1.53;73.99
61906;BME280;47863;55.766;37.672;2022-11-20T05:18:04;100113.00;;;-1.51;73.68
61906;BME280;47863;55.766;37.672;2022-11-20T05:20:29;100111.22;;;-1.50;73.78
61906;BME280;47863;55.766;37.672;2022-11-20T05:22:58;100110.44;;;-1.52;73.78
61906;BME280;47863;55.766;37.672;2022-11-20T05:25:23;100039.28;;;-2.00;73.69
61906;BME280;47863;55.766;37.672;2022-11-20T05:27:49;100080.22;;;-1.78;73.70
61906;BME280;47863;55.766;37.672;2022-11-20T05:30:14;100133.41;;;-1.56;73.66
61906;BME280;47863;55.766;37.672;2022-11-20T05:32:40;100104.34;;;-1.70;73.66
61906;BME280;47863;55.766;37.672;2022-11-20T05:35:06;100126.22;;;-1.52;73.72
61906;BME280;47863;55.766;37.672;2022-11-20T05:37:31;100127.38;;;-1.41;73.85
61906;BME280;47863;55.766;37.672;2022-11-20T05:39:57;100129.50;;;-1.30;73.68
61906;BME280;47863;55.766;37.672;2022-11-20T05:42:22;100143.41;;;-1.28;73.45
61906;BME280;47863;55.766;37.672;2022-11-20T05:44:58;100145.00;;;-1.25;73.52
61906;BME280;47863;55.766;37.672;2022-11-20T05:47:25;100142.38;;;-1.25;73.50
61906;BME280;47863;55.766;37.672;2022-11-20T05:49:50;100143.16;;;-1.23;73.50
61906;BME280;47863;55.766;37.672;2022-11-20T05:52:16;100137.97;;;-1.25;73.43
61906;BME280;47863;55.766;37.672;2022-11-20T05:54:41;100154.94;;;-1.30;73.40
61906;BME280;47863;55.766;37.672;2022-11-20T05:57:07;100146.78;;;-1.43;73.44
61906;BME280;47863;55.766;37.672;2022-11-20T05:59:32;100161.34;;;-1.36;73.33
61906;BME280;47863;55.766;37.672;2022-11-20T06:01:58;100159.84;;;-1.42;73.43
61906;BME280;47863;55.766;37.672;2022-11-20T06:04:23;100168.66;;;-1.43;73.57
61906;BME280;47863;55.766;37.672;2022-11-20T06:06:49;100152.50;;;-1.52;73.58
61906;BME280;47863;55.766;37.672;2022-11-20T06:09:14;100176.53;;;-1.43;73.47
61906;BME280;47863;55.766;37.672;2022-11-20T06:11:40;100164.41;;;-1.45;73.38
61906;BME280;47863;55.766;37.672;2022-11-20T06:14:05;100164.41;;;-1.45;73.50
61906;BME280;47863;55.766;37.672;2022-11-20T06:16:31;100185.53;;;-1.29;73.17
61906;BME280;47863;55.766;37.672;2022-11-20T06:18:56;100178.47;;;-1.29;73.61
61906;BME280;47863;55.766;37.672;2022-11-20T06:21:23;100177.31;;;-1.23;73.31
61906;BME280;47863;55.766;37.672;2022-11-20T06:23:49;100196.50;;;-1.04;73.08
61906;BME280;47863;55.766;37.672;2022-11-20T06:26:24;100194.59;;;-1.00;73.01
61906;BME280;47863;55.766;37.672;2022-11-20T06:28:50;100158.22;;;-1.09;72.70
61906;BME280;47863;55.766;37.672;2022-11-20T06:31:19;100163.28;;;-1.05;72.85
61906;BME280;47863;55.766;37.672;2022-11-20T06:33:45;100202.47;;;-0.83;72.85
61906;BME280;47863;55.766;37.672;2022-11-20T06:36:13;100213.38;;;-0.73;72.72
61906;BME280;47863;55.766;37.672;2022-11-20T06:38:39;100206.41;;;-0.74;72.84
61906;BME280;47863;55.766;37.672;2022-11-20T06:41:06;100219.22;;;-0.68;72.90
61906;BME280;47863;55.766;37.672;2022-11-20T06:43:31;100193.63;;;-0.82;72.99
61906;BME280;47863;55.766;37.672;2022-11-20T06:45:58;100210.56;;;-0.70;73.02
61906;BME280;47863;55.766;37.672;2022-11-20T06:48:28;100197.09;;;-0.81;72.94
61906;BME280;47863;55.766;37.672;2022-11-20T06:50:54;100204.16;;;-0.64;72.70
61906;BME280;47863;55.766;37.672;2022-11-20T06:53:20;100181.25;;;-0.80;72.79
61906;BME280;47863;55.766;37.672;2022-11-20T06:55:46;100192.59;;;-0.62;72.91
61906;BME280;47863;55.766;37.672;2022-11-20T06:58:13;100195.16;;;-0.60;72.68
61906;BME280;47863;55.766;37.672;2022-11-20T07:00:39;100199.19;;;-0.53;72.58
61906;BME280;47863;55.766;37.672;2022-11-20T07:03:06;100210.47;;;-0.51;72.47
61906;BME280;47863;55.766;37.672;2022-11-20T07:05:32;100203.81;;;-0.58;72.38
61906;BME280;47863;55.766;37.672;2022-11-20T07:07:58;100145.06;;;-0.92;72.38
61906;BME280;47863;55.766;37.672;2022-11-20T07:10:24;100209.09;;;-0.58;72.60
61906;BME280;47863;55.766;37.672;2022-11-20T07:12:51;100207.84;;;-0.51;72.54
61906;BME280;47863;55.766;37.672;2022-11-20T07:15:18;100174.59;;;-0.69;72.71
61906;BME280;47863;55.766;37.672;2022-11-20T07:17:44;100205.03;;;-0.48;72.60
61906;BME280;47863;55.766;37.672;2022-11-20T07:20:09;100204.81;;;-0.43;72.63
61906;BME280;47863;55.766;37.672;2022-11-20T07:22:35;100200.31;;;-0.41;72.30
61906;BME280;47863;55.766;37.672;2022-11-20T07:25:01;100191.81;;;-0.46;72.55
61906;BME280;47863;55.766;37.672;2022-11-20T07:27:29;100199.69;;;-0.46;72.48
61906;BME280;47863;55.766;37.672;2022-11-20T07:29:54;100210.66;;;-0.38;72.35
61906;BME280;47863;55.766;37.672;2022-11-20T07:32:20;100220.03;;;-0.32;72.19
61906;BME280;47863;55.766;37.672;2022-11-20T07:34:46;100185.00;;;-0.50;72.46
61906;BME280;47863;55.766;37.672;2022-11-20T07:37:12;100215.81;;;-0.19;72.14
61906;BME280;47863;55.766;37.672;2022-11-20T07:39:38;100178.09;;;-0.35;72.18
61906;BME280;47863;55.766;37.672;2022-11-20T07:42:04;100196.44;;;-0.18;72.21
61906;BME280;47863;55.766;37.672;2022-11-20T07:44:29;100208.09;;;-0.06;71.81
61906;BME280;47863;55.766;37.672;2022-11-20T07:46:55;100207.00;;;-0.02;71.76
61906;BME280;47863;55.766;37.672;2022-11-20T07:49:20;100205.81;;;0.04;71.75
61906;BME280;47863;55.766;37.672;2022-11-20T07:51:46;100187.34;;;-0.12;71.75
61906;BME280;47863;55.766;37.672;2022-11-20T07:54:11;100226.66;;;0.08;71.72
61906;BME280;47863;55.766;37.672;2022-11-20T07:56:36;100227.41;;;0.10;71.75
61906;BME280;47863;55.766;37.672;2022-11-20T07:59:03;100232.50;;;0.13;71.68
61906;BME280;47863;55.766;37.672;2022-11-20T08:01:29;100224.78;;;0.10;71.52
61906;BME280;47863;55.766;37.672;2022-11-20T08:03:55;100231.72;;;0.11;71.62
61906;BME280;47863;55.766;37.672;2022-11-20T08:06:21;100230.38;;;0.04;71.88
61906;BME280;47863;55.766;37.672;2022-11-20T08:08:46;100188.09;;;-0.26;71.81
61906;BME280;47863;55.766;37.672;2022-11-20T08:11:12;100228.94;;;-0.02;71.92
61906;BME280;47863;55.766;37.672;2022-11-20T08:13:56;100204.69;;;-0.08;71.98
61906;BME280;47863;55.766;37.672;2022-11-20T08:16:41;100239.28;;;0.17;71.96
61906;BME280;47863;55.766;37.672;2022-11-20T08:19:07;100244.22;;;0.24;71.77
61906;BME280;47863;55.766;37.672;2022-11-20T08:21:32;100248.06;;;0.18;71.40
61906;BME280;47863;55.766;37.672;2022-11-20T08:23:59;100252.22;;;0.06;71.62
61906;BME280;47863;55.766;37.672;2022-11-20T08:26:25;100249.47;;;-0.08;71.75
61906;BME280;47863;55.766;37.672;2022-11-20T08:28:57;100241.31;;;-0.19;71.56
61906;BME280;47863;55.766;37.672;2022-11-20T08:31:24;100243.31;;;-0.25;71.92
61906;BME280;47863;55.766;37.672;2022-11-20T08:33:50;100232.50;;;-0.36;71.66
61906;BME280;47863;55.766;37.672;2022-11-20T08:36:16;100253.22;;;-0.30;71.49
61906;BME280;47863;55.766;37.672;2022-11-20T08:38:42;100237.06;;;-0.40;71.25
61906;BME280;47863;55.766;37.672;2022-11-20T08:41:11;100253.22;;;-0.30;71.55
61906;BME280;47863;55.766;37.672;2022-11-20T08:43:54;100256.03;;;-0.33;71.51
61906;BME280;47863;55.766;37.672;2022-11-20T08:46:20;100252.56;;;-0.33;71.61
61906;BME280;47863;55.766;37.672;2022-11-20T08:48:46;100254.31;;;-0.34;71.37
61906;BME280;47863;55.766;37.672;2022-11-20T08:51:12;100260.22;;;-0.29;71.32
61906;BME280;47863;55.766;37.672;2022-11-20T08:53:38;100237.25;;;-0.43;71.57
61906;BME280;47863;55.766;37.672;2022-11-20T08:56:05;100262.69;;;-0.26;71.40
61906;BME280;47863;55.766;37.672;2022-11-20T08:58:31;100270.16;;;-0.18;71.27
61906;BME280;47863;55.766;37.672;2022-11-20T09:00:56;100247.75;;;-0.25;71.07
61906;BME280;47863;55.766;37.672;2022-11-20T09:03:22;100285.84;;;0.01;71.37
61906;BME280;47863;55.766;37.672;2022-11-20T09:05:47;100297.78;;;0.08;71.14
61906;BME280;47863;55.766;37.672;2022-11-20T09:08:13;100275.94;;;0.06;70.88
61906;BME280;47863;55.766;37.672;2022-11-20T09:10:38;100263.94;;;0.01;71.04
61906;BME280;47863;55.766;37.672;2022-11-20T09:13:07;100307.72;;;0.19;70.79
61906;BME280;47863;55.766;37.672;2022-11-20T09:15:32;100278.19;;;-0.04;70.89
61906;BME280;47863;55.766;37.672;2022-11-20T09:18:00;100315.25;;;0.09;71.07
61906;BME280;47863;55.766;37.672;2022-11-20T09:20:29;100310.16;;;0.06;71.30
61906;BME280;47863;55.766;37.672;2022-11-20T09:22:56;100315.25;;;0.09;70.98
61906;BME280;47863;55.766;37.672;2022-11-20T09:25:22;100319.50;;;0.12;71.30
61906;BME280;47863;55.766;37.672;2022-11-20T09:27:47;100325.72;;;0.11;71.13
61906;BME280;47863;55.766;37.672;2022-11-20T09:30:16;100313.75;;;-0.12;71.20
61906;BME280;47863;55.766;37.672;2022-11-20T09:32:42;100308.38;;;-0.27;71.45
61906;BME280;47863;55.766;37.672;2022-11-20T09:35:09;100348.63;;;-0.07;71.08
61906;BME280;47863;55.766;37.672;2022-11-20T09:37:35;100344.59;;;-0.14;71.56
61906;BME280;47863;55.766;37.672;2022-11-20T09:40:01;100327.81;;;-0.29;70.94
61906;BME280;47863;55.766;37.672;2022-11-20T09:56:33;100351.72;;;-0.34;71.21
61906;BME280;47863;55.766;37.672;2022-11-20T09:59:02;100351.88;;;-0.37;71.18
61906;BME280;47863;55.766;37.672;2022-11-20T10:01:32;100339.63;;;-0.38;71.17
61906;BME280;47863;55.766;37.672;2022-11-20T10:04:19;100343.91;;;-0.35;70.94
61906;BME280;47863;55.766;37.672;2022-11-20T10:09:38;100351.56;;;-0.31;71.36
61906;BME280;47863;55.766;37.672;2022-11-20T10:14:58;100342.44;;;-0.24;71.20
61906;BME280;47863;55.766;37.672;2022-11-20T10:20:58;100354.59;;;-0.21;70.92
61906;BME280;47863;55.766;37.672;2022-11-20T10:31:23;100362.03;;;-0.29;71.42
61906;BME280;47863;55.766;37.672;2022-11-20T10:33:53;100349.47;;;-0.42;71.34
61906;BME280;47863;55.766;37.672;2022-11-20T10:36:26;100364.22;;;-0.37;71.65
61906;BME280;47863;55.766;37.672;2022-11-20T10:39:05;100363.56;;;-0.43;71.43
61906;BME280;47863;55.766;37.672;2022-11-20T10:41:40;100364.66;;;-0.47;71.85
61906;BME280;47863;55.766;37.672;2022-11-20T10:44:17;100357.84;;;-0.51;72.00
61906;BME280;47863;55.766;37.672;2022-11-20T10:47:05;100365.25;;;-0.42;71.54
61906;BME280;47863;55.766;37.672;2022-11-20T10:49:36;100343.75;;;-0.50;71.50
61906;BME280;47863;55.766;37.672;2022-11-20T10:55:03;100374.25;;;-0.28;71.73
61906;BME280;47863;55.766;37.672;2022-11-20T11:00:09;100385.03;;;-0.15;71.75
61906;BME280;47863;55.766;37.672;2022-11-20T11:05:17;100381.13;;;-0.08;71.55
61906;BME280;47863;55.766;37.672;2022-11-20T11:07:45;100374.88;;;-0.06;71.67
61906;BME280;47863;55.766;37.672;2022-11-20T11:10:22;100388.72;;;-0.02;71.28
61906;BME280;47863;55.766;37.672;2022-11-20T11:12:49;100382.53;;;-0.01;71.72
61906;BME280;47863;55.766;37.672;2022-11-20T11:15:26;100386.78;;;0.02;71.38
61906;BME280;47863;55.766;37.672;2022-11-20T11:17:53;100396.41;;;0.03;71.65
61906;BME280;47863;55.766;37.672;2022-11-20T11:20:24;100399.09;;;0.01;71.53
61906;BME280;47863;55.766;37.672;2022-11-20T11:22:53;100390.50;;;-0.03;71.41
61906;BME280;47863;55.766;37.672;2022-11-20T11:27:52;100397.88;;;-0.09;71.70
61906;BME280;47863;55.766;37.672;2022-11-20T11:30:19;100402.50;;;-0.14;71.59
61906;BME280;47863;55.766;37.672;2022-11-20T11:32:45;100394.94;;;-0.21;71.97
61906;BME280;47863;55.766;37.672;2022-11-20T11:35:28;100400.50;;;-0.27;71.81
61906;BME280;47863;55.766;37.672;2022-11-20T11:38:07;100398.88;;;-0.29;72.00
61906;BME280;47863;55.766;37.672;2022-11-20T11:40:39;100392.06;;;-0.33;71.90
61906;BME280;47863;55.766;37.672;2022-11-20T11:43:15;100366.81;;;-0.55;72.09
61906;BME280;47863;55.766;37.672;2022-11-20T11:46:03;100394.00;;;-0.37;71.94
61906;BME280;47863;55.766;37.672;2022-11-20T11:48:31;100401.91;;;-0.37;72.17
61906;BME280;47863;55.766;37.672;2022-11-20T11:50:57;100395.09;;;-0.41;71.95
61906;BME280;47863;55.766;37.672;2022-11-20T11:53:25;100373.25;;;-0.61;72.19
61906;BME280;47863;55.766;37.672;2022-11-20T11:56:05;100369.19;;;-0.68;72.07
61906;BME280;47863;55.766;37.672;2022-11-20T12:01:11;100413.47;;;-0.58;72.34
61906;BME280;47863;55.766;37.672;2022-11-20T12:03:42;100392.25;;;-0.73;72.20
61906;BME280;47863;55.766;37.672;2022-11-20T12:06:14;100428.13;;;-0.53;72.34
61906;BME280;47863;55.766;37.672;2022-11-20T12:08:57;100419.84;;;-0.45;72.04
61906;BME280;47863;55.766;37.672;2022-11-20T12:11:28;100413.59;;;-0.43;72.20
61906;BME280;47863;55.766;37.672;2022-11-20T12:16:37;100417.59;;;-0.53;72.00
61906;BME280;47863;55.766;37.672;2022-11-20T12:19:11;100407.75;;;-0.67;72.12
61906;BME280;47863;55.766;37.672;2022-11-20T12:30:01;100419.19;;;-0.68;71.86
61906;BME280;47863;55.766;37.672;2022-11-20T12:43:45;100409.84;;;-0.56;71.53
61906;BME280;47863;55.766;37.672;2022-11-20T12:49:37;100415.56;;;-0.48;71.68
61906;BME280;47863;55.766;37.672;2022-11-20T12:52:33;100428.59;;;-0.45;71.41
61906;BME280;47863;55.766;37.672;2022-11-20T12:57:41;100414.72;;;-0.48;71.82
61906;BME280;47863;55.766;37.672;2022-11-20T13:00:19;100425.44;;;-0.51;71.59
61906;BME280;47863;55.766;37.672;2022-11-20T13:08:03;100431.53;;;-0.51;71.92
61906;BME280;47863;55.766;37.672;2022-11-20T13:13:26;100408.47;;;-0.63;71.83
61906;BME280;47863;55.766;37.672;2022-11-20T13:16:00;100429.88;;;-0.53;71.93
61906;BME280;47863;55.766;37.672;2022-11-20T13:18:28;100446.31;;;-0.48;71.89
61906;BME280;47863;55.766;37.672;2022-11-20T13:20:59;100436.78;;;-0.51;71.64
61906;BME280;47863;55.766;37.672;2022-11-20T13:23:26;100431.06;;;-0.59;71.59
61906;BME280;47863;55.766;37.672;2022-11-20T13:26:19;100439.50;;;-0.52;71.46
61906;BME280;47863;55.766;37.672;2022-11-20T13:28:46;100426.94;;;-0.65;71.67
61906;BME280;47863;55.766;37.672;2022-11-20T13:31:43;100439.56;;;-0.54;71.84
61906;BME280;47863;55.766;37.672;2022-11-20T13:34:12;100451.66;;;-0.50;71.86
61906;BME280;47863;55.766;37.672;2022-11-20T13:36:55;100446.31;;;-0.48;71.55
61906;BME280;47863;55.766;37.672;2022-11-20T13:39:28;100451.56;;;-0.48;71.55
61906;BME280;47863;55.766;37.672;2022-11-20T13:42:00;100456.59;;;-0.44;71.42
61906;BME280;47863;55.766;37.672;2022-11-20T13:44:35;100456.72;;;-0.45;71.96
61906;BME280;47863;55.766;37.672;2022-11-20T13:47:03;100460.13;;;-0.43;71.63
61906;BME280;47863;55.766;37.672;2022-11-20T13:49:37;100459.09;;;-0.41;71.50
61906;BME280;47863;55.766;37.672;2022-11-20T13:54:52;100463.22;;;-0.35;71.89
61906;BME280;47863;55.766;37.672;2022-11-20T14:00:15;100470.41;;;-0.38;71.29
61906;BME280;47863;55.766;37.672;2022-11-20T14:02:42;100452.66;;;-0.52;71.59
61906;BME280;47863;55.766;37.672;2022-11-20T14:05:21;100447.69;;;-0.58;71.54
61906;BME280;47863;55.766;37.672;2022-11-20T14:07:47;100467.78;;;-0.38;71.70
61906;BME280;47863;55.766;37.672;2022-11-20T14:12:48;100475.75;;;-0.40;71.74
61906;BME280;47863;55.766;37.672;2022-11-20T14:15:32;100456.84;;;-0.48;71.61
61906;BME280;47863;55.766;37.672;2022-11-20T14:17:59;100475.91;;;-0.43;71.63
61906;BME280;47863;55.766;37.672;2022-11-20T14:20:28;100477.66;;;-0.44;71.39
61906;BME280;47863;55.766;37.672;2022-11-20T14:22:56;100474.63;;;-0.53;71.64
61906;BME280;47863;55.766;37.672;2022-11-20T14:25:25;100487.50;;;-0.47;71.73
61906;BME280;47863;55.766;37.672;2022-11-20T14:27:59;100420.00;;;-0.85;71.55
61906;BME280;47863;55.766;37.672;2022-11-20T14:30:38;100496.97;;;-0.43;71.12